Aviation Digital Data Service (ADDS)

Output produced by METARs form (1937 UTC 25 March 2017)
found at http://www.aviationweather.gov/adds/metars/
 
TAF UMBB 251705Z 2518/2603 30005G10MPS 4000 BR BKN010 BKN020CB 
     TEMPO 2518/2524 2000 SHRA BR BKN005 
     TEMPO 2600/2603 1100 SHRASN BKN005
       
UMGG 251930Z 13002MPS 4000 -SHSNRA BKN004 OVC014CB 01/00 Q1015 R28/190055 NOSIG RMK QBB120
TAF UMGG 251700Z 2518/2618 16006MPS 6000 BKN015 TX01/2518Z TNM01/2601Z 
     TEMPO 2518/2606 09005MPS 1200 SHSNRA BR BKN004 BKN020CB 
     BECMG 2606/2608 06006MPS 
     TEMPO 2612/2618 34006MPS 2000 SHRASN BKN005 BKN020CB
       
TAF UMMG 251100Z 2512/2521 29007G12MPS 6000 BKN015CB 
     TEMPO 2512/2518 2100 -SHRASN BR OVC007
       
TAF UMBB 251705Z 2518/2603 30005G10MPS 4000 BR BKN010 BKN020CB 
     TEMPO 2518/2524 2000 SHRA BR BKN005 
     TEMPO 2600/2603 1100 SHRASN BKN005
       
UMGG 251930Z 13002MPS 4000 -SHSNRA BKN004 OVC014CB 01/00 Q1015 R28/190055 NOSIG RMK QBB120
TAF UMGG 251700Z 2518/2618 16006MPS 6000 BKN015 TX01/2518Z TNM01/2601Z 
     TEMPO 2518/2606 09005MPS 1200 SHSNRA BR BKN004 BKN020CB 
     BECMG 2606/2608 06006MPS 
     TEMPO 2612/2618 34006MPS 2000 SHRASN BKN005 BKN020CB
       
UMII 251600Z 23003G06MPS 9999 SCT020 SCT300 02/M05 Q1013 TEMPO SCT005
TAF UMII 251405Z 2515/2524 25005G10MPS 6000 BKN010 
     TEMPO 2515/2524 2000 SHSNRA BKN005 BKN012CB
       
UMKK 251900Z 34006MPS 310V010 CAVOK 04/M01 Q1020 R24/60D NOSIG RMK QFE764/1019
TAF UMKK 251700Z 2518/2618 34007MPS 9999 BKN010 
     TEMPO 2518/2603 02003G08MPS BKN005 
     BECMG 2603/2605 VRB01MPS 
     BECMG 2609/2611 29005MPS 
     TEMPO 2611/2618 27005G10MPS
       
TAF UMMG 251100Z 2512/2521 29007G12MPS 6000 BKN015CB 
     TEMPO 2512/2518 2100 -SHRASN BR OVC007
       
UMMS 251930Z 03002MPS 010V070 4500 -RASN BR BKN003 OVC020 01/01 Q1013 R31/290055 TEMPO 1200 SNRA RMK QBB110
TAF UMMS 251713Z 2518/2618 28006MPS 3000 -SNRA BR BKN003 BKN015 TX05/2612Z TNM02/2603Z 
     TEMPO 2518/2607 36005MPS 0500 FZDZ +SHSNRA FZFG BKN002 BKN012CB 
     BECMG 2607/2609 33006MPS 8000 NSW BKN010
       
UMOO 251500Z 23003MPS 8000 -SHSNRA BKN032CB OVC/// 03/M01 Q1014 NOSIG
TAF UMOO 251100Z 2512/2521 22004MPS 9999 BKN015 
     TEMPO 2512/2521 2100 -SHSNRA BKN005 BKN020CB
       
UMMS 251930Z 03002MPS 010V070 4500 -RASN BR BKN003 OVC020 01/01 Q1013 R31/290055 TEMPO 1200 SNRA RMK QBB110
TAF UMMS 251713Z 2518/2618 28006MPS 3000 -SNRA BR BKN003 BKN015 TX05/2612Z TNM02/2603Z 
     TEMPO 2518/2607 36005MPS 0500 FZDZ +SHSNRA FZFG BKN002 BKN012CB 
     BECMG 2607/2609 33006MPS 8000 NSW BKN010
       
UMOO 251500Z 23003MPS 8000 -SHSNRA BKN032CB OVC/// 03/M01 Q1014 NOSIG
TAF UMOO 251100Z 2512/2521 22004MPS 9999 BKN015 
     TEMPO 2512/2521 2100 -SHSNRA BKN005 BKN020CB